createdAt,value
2023-05-06T00:00:39.503Z,99373.50
2023-05-06T00:01:41.705Z,99375.59
2023-05-06T00:02:43.993Z,99372.03
2023-05-06T00:03:46.443Z,99376.06
2023-05-06T00:04:49.358Z,99370.22
2023-05-06T00:05:51.891Z,99365.88
2023-05-06T00:06:54.301Z,99367.03
2023-05-06T00:07:56.621Z,99363.53
2023-05-06T00:08:59.209Z,99373.56
2023-05-06T00:10:01.550Z,99365.06
2023-05-06T00:11:03.922Z,99372.16
2023-05-06T00:12:06.102Z,99375.75
2023-05-06T00:13:08.350Z,99361.03
2023-05-06T00:14:10.656Z,99359.94
2023-05-06T00:15:12.915Z,99363.84
2023-05-06T00:16:15.247Z,99364.13
2023-05-06T00:17:17.780Z,99355.91
2023-05-06T00:18:22.292Z,99363.75
2023-05-06T00:19:24.524Z,99360.31
2023-05-06T00:20:27.431Z,99362.34
2023-05-06T00:21:29.820Z,99358.09
2023-05-06T00:22:32.013Z,99361.84
2023-05-06T00:23:34.213Z,99355.56
2023-05-06T00:24:36.379Z,99361.03
2023-05-06T00:25:38.686Z,99352.41
2023-05-06T00:26:40.879Z,99360.81
2023-05-06T00:27:43.006Z,99366.94
2023-05-06T00:28:47.953Z,99360.22
2023-05-06T00:29:50.482Z,99356.63
2023-05-06T00:30:52.744Z,99361.84
2023-05-06T00:31:55.022Z,99355.25
2023-05-06T00:32:57.286Z,99362.94
2023-05-06T00:33:59.502Z,99355.69
2023-05-06T00:35:01.696Z,99352.69
2023-05-06T00:36:04.053Z,99349.25
2023-05-06T00:37:06.282Z,99356.78
2023-05-06T00:38:11.352Z,99360.44
2023-05-06T00:39:13.526Z,99360.13
2023-05-06T00:40:15.858Z,99355.84
2023-05-06T00:41:18.095Z,99354.94
2023-05-06T00:42:23.155Z,99348.72
2023-05-06T00:43:25.353Z,99343.28
2023-05-06T00:44:28.383Z,99346.38
2023-05-06T00:45:30.822Z,99345.50
2023-05-06T00:46:33.465Z,99334.44
2023-05-06T00:47:35.760Z,99336.41
2023-05-06T00:48:38.810Z,99330.13
2023-05-06T00:49:42.080Z,99333.78
2023-05-06T00:50:45.770Z,99333.19
2023-05-06T00:51:48.531Z,99331.53
2023-05-06T00:52:51.300Z,99345.72
2023-05-06T00:53:53.476Z,99340.16
2023-05-06T00:54:56.315Z,99337.88
2023-05-06T00:55:58.479Z,99344.50
2023-05-06T00:57:01.272Z,99346.97
2023-05-06T00:58:03.586Z,99344.50
2023-05-06T00:59:06.076Z,99345.19
2023-05-06T01:00:08.679Z,99338.91
2023-05-06T01:01:11.265Z,99341.63
2023-05-06T01:02:13.635Z,99342.56
2023-05-06T01:03:15.899Z,99340.00
2023-05-06T01:04:18.617Z,99345.63
2023-05-06T01:05:22.797Z,99350.63
2023-05-06T01:07:02.902Z,99344.25
2023-05-06T01:08:15.535Z,99344.59
2023-05-06T01:09:41.905Z,99334.88
2023-05-06T01:10:52.348Z,99333.09
2023-05-06T01:12:25.705Z,99332.88
2023-05-06T01:13:40.505Z,99335.75
2023-05-06T01:15:06.515Z,99322.19
2023-05-06T01:16:10.202Z,99330.97
2023-05-06T01:17:15.868Z,99326.28
2023-05-06T01:18:22.593Z,99329.00
2023-05-06T01:19:37.305Z,99333.78
2023-05-06T01:20:42.020Z,99331.72
2023-05-06T01:21:46.096Z,99332.25
2023-05-06T01:22:50.190Z,99337.34
2023-05-06T01:23:53.238Z,99334.72
2023-05-06T01:24:55.509Z,99340.81
2023-05-06T01:25:57.759Z,99335.75
2023-05-06T01:26:59.908Z,99337.75
2023-05-06T01:28:02.153Z,99342.84
2023-05-06T01:29:04.848Z,99332.28
2023-05-06T01:30:07.818Z,99341.97
2023-05-06T01:31:13.787Z,99334.59
2023-05-06T01:32:36.544Z,99331.00
2023-05-06T01:33:57.428Z,99332.81
2023-05-06T01:35:38.293Z,99335.75
2023-05-06T01:37:06.896Z,99333.00
2023-05-06T01:38:20.806Z,99326.97
2023-05-06T01:39:26.837Z,99327.97
2023-05-06T01:40:31.090Z,99328.50
2023-05-06T01:41:38.903Z,99325.84
2023-05-06T01:42:41.698Z,99331.38
2023-05-06T01:43:47.299Z,99322.44
2023-05-06T01:44:50.502Z,99334.09
2023-05-06T01:45:55.895Z,99325.59
2023-05-06T01:46:58.234Z,99320.31
2023-05-06T01:48:00.824Z,99332.75
2023-05-06T01:49:10.419Z,99335.19
2023-05-06T01:50:13.445Z,99334.09
2023-05-06T01:51:15.705Z,99329.00
2023-05-06T01:52:17.876Z,99327.28
2023-05-06T01:53:20.047Z,99319.44
2023-05-06T01:54:22.324Z,99332.13
2023-05-06T01:55:24.480Z,99324.38
2023-05-06T01:56:27.085Z,99326.00
2023-05-06T01:57:29.259Z,99316.56
2023-05-06T01:58:31.514Z,99320.44
2023-05-06T01:59:34.661Z,99320.44
2023-05-06T02:02:10.581Z,99323.88
2023-05-06T02:03:12.962Z,99307.97
2023-05-06T02:04:15.469Z,99316.41
2023-05-06T02:05:18.246Z,99322.56
2023-05-06T02:06:24.773Z,99321.69
2023-05-06T02:07:26.934Z,99321.69
2023-05-06T02:08:29.278Z,99321.84
2023-05-06T02:09:31.425Z,99327.69
2023-05-06T02:10:36.775Z,99325.78
2023-05-06T02:11:42.916Z,99321.00
2023-05-06T02:12:45.139Z,99319.22
2023-05-06T02:13:47.463Z,99325.66
2023-05-06T02:14:49.695Z,99318.28
2023-05-06T02:15:55.232Z,99325.13
2023-05-06T02:17:03.583Z,99323.22
2023-05-06T02:18:05.927Z,99319.91
2023-05-06T02:19:08.257Z,99322.47
2023-05-06T02:20:10.774Z,99328.75
2023-05-06T02:21:12.998Z,99320.66
2023-05-06T02:22:15.143Z,99326.56
2023-05-06T02:23:17.351Z,99322.06
2023-05-06T02:24:19.544Z,99319.19
2023-05-06T02:25:22.386Z,99321.97
2023-05-06T02:26:24.569Z,99319.34
2023-05-06T02:27:26.948Z,99316.69
2023-05-06T02:28:30.784Z,99314.94
2023-05-06T02:29:33.085Z,99316.63
2023-05-06T02:30:36.387Z,99316.09
2023-05-06T02:31:38.634Z,99315.25
2023-05-06T02:32:41.380Z,99311.34
2023-05-06T02:33:45.273Z,99319.66
2023-05-06T02:34:47.425Z,99316.94
2023-05-06T02:35:50.275Z,99320.53
2023-05-06T02:36:52.852Z,99314.50
2023-05-06T02:37:55.775Z,99327.81
2023-05-06T02:38:57.952Z,99321.78
2023-05-06T02:40:00.231Z,99315.41
2023-05-06T02:41:02.469Z,99313.69
2023-05-06T02:42:04.763Z,99323.06
2023-05-06T02:43:06.943Z,99323.75
2023-05-06T02:44:09.731Z,99321.47
2023-05-06T02:45:12.235Z,99317.50
2023-05-06T02:46:14.615Z,99315.09
2023-05-06T02:47:16.824Z,99318.22
2023-05-06T02:48:19.977Z,99315.59
2023-05-06T02:49:22.190Z,99320.38
2023-05-06T02:50:24.354Z,99314.41
2023-05-06T02:51:26.575Z,99314.94
2023-05-06T02:52:28.801Z,99311.72
2023-05-06T02:53:31.030Z,99315.38
2023-05-06T02:54:33.353Z,99311.09
2023-05-06T02:55:35.888Z,99314.88
2023-05-06T02:56:38.080Z,99318.69
2023-05-06T02:57:40.250Z,99315.09
2023-05-06T02:58:42.448Z,99319.09
2023-05-06T02:59:44.714Z,99316.53
2023-05-06T03:00:46.954Z,99310.16
2023-05-06T03:01:49.185Z,99318.16
2023-05-06T03:02:51.650Z,99322.47
2023-05-06T03:03:53.995Z,99314.66
2023-05-06T03:04:56.360Z,99314.16
2023-05-06T03:05:58.656Z,99314.34
2023-05-06T03:07:01.042Z,99310.09
2023-05-06T03:08:03.341Z,99300.72
2023-05-06T03:09:06.538Z,99310.63
2023-05-06T03:10:09.363Z,99309.63
2023-05-06T03:11:13.372Z,99310.78
2023-05-06T03:12:15.594Z,99300.25
2023-05-06T03:13:17.885Z,99303.97
2023-05-06T03:14:20.211Z,99305.44
2023-05-06T03:15:22.382Z,99297.47
2023-05-06T03:16:24.695Z,99298.63
2023-05-06T03:17:29.615Z,99299.72
2023-05-06T03:18:32.041Z,99300.47
2023-05-06T03:19:34.920Z,99301.81
2023-05-06T03:20:37.372Z,99298.69
2023-05-06T03:21:39.574Z,99300.25
2023-05-06T03:22:42.367Z,99299.16
2023-05-06T03:23:44.797Z,99295.44
2023-05-06T03:24:46.994Z,99294.28
2023-05-06T03:25:49.149Z,99302.97
2023-05-06T03:26:52.622Z,99299.53
2023-05-06T03:27:55.152Z,99293.34
2023-05-06T03:28:59.015Z,99300.34
2023-05-06T03:30:01.797Z,99298.78
2023-05-06T03:31:04.096Z,99298.16
2023-05-06T03:32:09.106Z,99299.69
2023-05-06T03:33:16.947Z,99297.69
2023-05-06T03:34:19.180Z,99298.69
2023-05-06T03:35:21.465Z,99300.09
2023-05-06T03:36:27.973Z,99289.16
2023-05-06T03:37:30.811Z,99300.00
2023-05-06T03:38:33.141Z,99297.03
2023-05-06T03:39:38.746Z,99297.91
2023-05-06T03:40:41.003Z,99298.69
2023-05-06T03:41:43.272Z,99293.16
2023-05-06T03:42:46.256Z,99305.38
2023-05-06T03:43:48.784Z,99291.22
2023-05-06T03:44:53.746Z,99298.28
2023-05-06T03:45:57.340Z,99294.56
2023-05-06T03:46:59.830Z,99286.44
2023-05-06T03:48:03.716Z,99291.69
2023-05-06T03:49:08.547Z,99296.19
2023-05-06T03:50:10.784Z,99294.66
2023-05-06T03:51:14.209Z,99288.22
2023-05-06T03:52:16.576Z,99289.78
2023-05-06T03:53:18.918Z,99291.41
2023-05-06T03:54:23.350Z,99283.44
2023-05-06T03:55:25.552Z,99295.34
2023-05-06T03:56:27.876Z,99290.78
2023-05-06T03:57:31.682Z,99289.00
2023-05-06T03:58:34.120Z,99290.00
2023-05-06T03:59:37.466Z,99291.69
2023-05-06T04:00:41.442Z,99290.69
2023-05-06T04:01:43.685Z,99289.63
2023-05-06T04:02:48.060Z,99292.41
2023-05-06T04:03:57.419Z,99292.41
2023-05-06T04:05:01.244Z,99292.34
2023-05-06T04:06:05.241Z,99294.97
2023-05-06T04:07:07.481Z,99294.91
2023-05-06T04:08:09.631Z,99291.41
2023-05-06T04:09:11.820Z,99288.63
2023-05-06T04:10:15.508Z,99294.66
2023-05-06T04:11:22.604Z,99292.81
2023-05-06T04:12:24.862Z,99296.94
2023-05-06T04:13:27.923Z,99294.03
2023-05-06T04:14:33.189Z,99291.41
2023-05-06T04:15:36.167Z,99302.41
2023-05-06T04:16:41.581Z,99311.03
2023-05-06T04:17:43.805Z,99303.41
2023-05-06T04:18:47.697Z,99304.28
2023-05-06T04:19:53.700Z,99301.94
2023-05-06T04:20:55.924Z,99311.47
2023-05-06T04:21:58.522Z,99307.19
2023-05-06T04:23:01.733Z,99307.47
2023-05-06T04:24:04.421Z,99302.78
2023-05-06T04:25:12.126Z,99302.56
2023-05-06T04:26:14.786Z,99310.00
2023-05-06T04:27:18.123Z,99309.66
2023-05-06T04:28:21.812Z,99325.66
2023-05-06T04:29:27.048Z,99328.72
2023-05-06T04:30:34.031Z,99345.81
2023-05-06T04:31:37.153Z,99354.19
2023-05-06T04:32:42.487Z,99361.59
2023-05-06T04:33:45.566Z,99368.56
2023-05-06T04:34:52.100Z,99367.91
2023-05-06T04:35:56.034Z,99373.09
2023-05-06T04:37:00.042Z,99370.81
2023-05-06T04:38:14.917Z,99380.00
2023-05-06T04:39:18.072Z,99374.28
2023-05-06T04:40:21.012Z,99376.50
2023-05-06T04:41:25.825Z,99379.03
2023-05-06T04:42:28.133Z,99382.94
2023-05-06T04:43:41.450Z,99393.13
2023-05-06T04:44:49.986Z,99388.00
2023-05-06T04:45:55.182Z,99399.94
2023-05-06T04:47:01.723Z,99401.28
2023-05-06T04:48:04.325Z,99397.22
2023-05-06T04:49:07.621Z,99401.06
2023-05-06T04:50:10.305Z,99403.66
2023-05-06T04:51:12.572Z,99406.38
2023-05-06T04:52:15.796Z,99404.41
2023-05-06T04:53:17.998Z,99401.19
2023-05-06T04:54:20.163Z,99406.97
2023-05-06T04:55:22.516Z,99404.41
2023-05-06T04:56:27.852Z,99406.19
2023-05-06T04:57:31.093Z,99409.41
2023-05-06T04:58:33.392Z,99414.44
2023-05-06T04:59:35.563Z,99416.81
2023-05-06T05:00:38.397Z,99422.13
2023-05-06T05:01:40.597Z,99422.50
2023-05-06T05:02:43.646Z,99424.44
2023-05-06T05:03:46.707Z,99423.00
2023-05-06T05:04:48.991Z,99425.50
2023-05-06T05:05:51.281Z,99432.38
2023-05-06T05:06:55.079Z,99431.56
2023-05-06T05:07:57.313Z,99436.66
2023-05-06T05:09:01.535Z,99430.03
2023-05-06T05:10:05.153Z,99435.22
2023-05-06T05:11:08.421Z,99426.78
2023-05-06T05:12:10.754Z,99426.31
2023-05-06T05:13:17.430Z,99433.19
2023-05-06T05:14:20.394Z,99425.34
2023-05-06T05:15:22.902Z,99431.59
2023-05-06T05:16:25.460Z,99430.63
2023-05-06T05:17:29.158Z,99423.91
2023-05-06T05:18:31.987Z,99432.56
2023-05-06T05:19:41.024Z,99431.88
2023-05-06T05:20:43.935Z,99422.84
2023-05-06T05:21:49.243Z,99431.47
2023-05-06T05:22:51.443Z,99433.56
2023-05-06T05:23:53.587Z,99437.84
2023-05-06T05:24:55.901Z,99437.38
2023-05-06T05:25:58.504Z,99431.53
2023-05-06T05:27:01.838Z,99436.72
2023-05-06T05:28:04.408Z,99440.41
2023-05-06T05:29:08.224Z,99430.22
2023-05-06T05:30:13.270Z,99431.19
2023-05-06T05:31:16.936Z,99432.53
2023-05-06T05:32:20.073Z,99425.06
2023-05-06T05:33:22.508Z,99427.13
2023-05-06T05:34:25.394Z,99429.41
2023-05-06T05:35:27.854Z,99430.00
2023-05-06T05:36:30.198Z,99438.50
2023-05-06T05:37:34.396Z,99441.13
2023-05-06T05:38:36.846Z,99433.63
2023-05-06T05:39:39.604Z,99429.22
2023-05-06T05:40:43.197Z,99430.97
2023-05-06T05:41:45.511Z,99437.88
2023-05-06T05:42:48.800Z,99438.44
2023-05-06T05:43:58.166Z,99431.19
2023-05-06T05:45:02.070Z,99436.88
2023-05-06T05:46:04.640Z,99450.28
2023-05-06T05:47:08.219Z,99434.88
2023-05-06T05:48:11.175Z,99432.84
2023-05-06T05:49:14.170Z,99437.47
2023-05-06T05:50:16.878Z,99441.78
2023-05-06T05:51:20.194Z,99438.84
2023-05-06T05:52:22.407Z,99432.41
2023-05-06T05:53:24.560Z,99437.31
2023-05-06T05:54:26.711Z,99427.44
2023-05-06T05:55:29.486Z,99434.03
2023-05-06T05:56:32.307Z,99438.56
2023-05-06T05:57:34.531Z,99437.00
2023-05-06T05:58:36.660Z,99440.28
2023-05-06T05:59:39.183Z,99438.44
2023-05-06T06:00:42.344Z,99439.75
2023-05-06T06:01:48.214Z,99442.28
2023-05-06T06:02:50.397Z,99448.75
2023-05-06T06:03:56.175Z,99446.59
2023-05-06T06:04:58.881Z,99444.16
2023-05-06T06:06:01.245Z,99433.84
2023-05-06T06:07:03.920Z,99438.13
2023-05-06T06:08:09.926Z,99446.69
2023-05-06T06:09:12.345Z,99443.22
2023-05-06T06:10:15.362Z,99442.56
2023-05-06T06:11:18.976Z,99439.50
2023-05-06T06:12:21.225Z,99444.81
2023-05-06T06:13:26.484Z,99435.25
2023-05-06T06:14:30.373Z,99432.28
2023-05-06T06:15:32.743Z,99428.91
2023-05-06T06:16:36.693Z,99430.06
2023-05-06T06:17:38.990Z,99432.84
2023-05-06T06:18:42.182Z,99437.75
2023-05-06T06:19:47.596Z,99443.56
2023-05-06T06:20:52.400Z,99443.44
2023-05-06T06:21:55.372Z,99443.91
2023-05-06T06:22:57.988Z,99448.53
2023-05-06T06:24:00.439Z,99449.84
2023-05-06T06:25:02.651Z,99455.28
2023-05-06T06:26:04.994Z,99452.22
2023-05-06T06:27:08.628Z,99442.13
2023-05-06T06:28:11.021Z,99455.53
2023-05-06T06:29:14.159Z,99443.53
2023-05-06T06:30:16.374Z,99438.75
2023-05-06T06:31:18.771Z,99447.09
2023-05-06T06:32:21.192Z,99453.19
2023-05-06T06:33:23.421Z,99454.84
2023-05-06T06:34:26.235Z,99452.88
2023-05-06T06:35:28.519Z,99454.44
2023-05-06T06:36:30.657Z,99456.41
2023-05-06T06:37:32.814Z,99443.69
2023-05-06T06:38:35.820Z,99452.19
2023-05-06T06:39:38.130Z,99454.03
2023-05-06T06:40:40.327Z,99461.03
2023-05-06T06:41:42.822Z,99468.50
2023-05-06T06:42:46.425Z,99456.63
2023-05-06T06:44:14.723Z,99462.06
2023-05-06T06:45:17.218Z,99457.97
2023-05-06T06:46:19.417Z,99455.66
2023-05-06T06:47:21.627Z,99454.94
2023-05-06T06:48:23.769Z,99455.84
2023-05-06T06:49:27.353Z,99457.03
2023-05-06T06:50:29.528Z,99454.13
2023-05-06T06:51:32.176Z,99460.34
2023-05-06T06:52:35.642Z,99454.38
2023-05-06T06:53:37.889Z,99454.97
2023-05-06T06:54:40.090Z,99447.03
2023-05-06T06:55:45.704Z,99447.97
2023-05-06T06:56:48.438Z,99456.78
2023-05-06T06:57:50.760Z,99465.16
2023-05-06T06:58:53.513Z,99464.09
2023-05-06T06:59:55.951Z,99465.78
2023-05-06T07:00:58.307Z,99470.09
2023-05-06T07:02:00.897Z,99473.31
2023-05-06T07:03:03.419Z,99467.91
2023-05-06T07:04:07.133Z,99472.13
2023-05-06T07:05:09.997Z,99472.31
2023-05-06T07:06:12.379Z,99478.91
2023-05-06T07:07:14.751Z,99475.66
2023-05-06T07:08:17.093Z,99472.06
2023-05-06T07:09:19.374Z,99474.34
2023-05-06T07:10:22.315Z,99477.03
2023-05-06T07:11:24.496Z,99479.47
2023-05-06T07:12:26.830Z,99473.25
2023-05-06T07:13:29.010Z,99479.25
2023-05-06T07:14:31.187Z,99479.00
2023-05-06T07:15:33.331Z,99475.69
2023-05-06T07:16:35.625Z,99480.66
2023-05-06T07:17:37.871Z,99485.88
2023-05-06T07:18:40.082Z,99488.91
2023-05-06T07:19:42.208Z,99481.09
2023-05-06T07:20:44.375Z,99475.38
2023-05-06T07:21:46.567Z,99482.41
2023-05-06T07:22:48.732Z,99480.84
2023-05-06T07:23:50.971Z,99485.94
2023-05-06T07:24:53.127Z,99480.06
2023-05-06T07:25:55.242Z,99483.53
2023-05-06T07:26:57.770Z,99480.28
2023-05-06T07:27:59.986Z,99483.06
2023-05-06T07:29:02.277Z,99478.34
2023-05-06T07:30:05.086Z,99475.06
2023-05-06T07:31:07.295Z,99472.28
2023-05-06T07:32:09.507Z,99477.34
2023-05-06T07:33:12.153Z,99472.84
2023-05-06T07:34:14.341Z,99473.34
2023-05-06T07:35:16.648Z,99487.66
2023-05-06T07:36:18.761Z,99473.13
2023-05-06T07:37:20.904Z,99487.00
2023-05-06T07:38:23.218Z,99482.53
2023-05-06T07:39:25.391Z,99492.53
2023-05-06T07:40:27.621Z,99481.31
2023-05-06T07:41:29.738Z,99484.34
2023-05-06T07:42:32.841Z,99484.81
2023-05-06T07:43:34.977Z,99482.38
2023-05-06T07:44:37.162Z,99488.91
2023-05-06T07:45:39.349Z,99483.47
2023-05-06T07:46:41.675Z,99487.56
2023-05-06T07:47:43.959Z,99478.13
2023-05-06T07:48:46.154Z,99484.19
2023-05-06T07:49:48.332Z,99481.25
2023-05-06T07:50:50.492Z,99482.13
2023-05-06T07:51:52.678Z,99484.09
2023-05-06T07:52:54.914Z,99486.09
2023-05-06T07:53:57.125Z,99479.59
2023-05-06T07:54:59.398Z,99488.03
2023-05-06T07:56:02.556Z,99485.09
2023-05-06T07:57:04.818Z,99491.19
2023-05-06T07:58:07.073Z,99483.31
2023-05-06T07:59:09.235Z,99484.09
2023-05-06T08:00:12.702Z,99491.03
2023-05-06T08:01:16.038Z,99490.56
2023-05-06T08:02:18.411Z,99498.84
2023-05-06T08:03:20.754Z,99500.69
2023-05-06T08:04:23.332Z,99491.81
2023-05-06T08:05:25.622Z,99498.97
2023-05-06T08:06:27.807Z,99489.59
2023-05-06T08:07:30.095Z,99493.03
2023-05-06T08:08:32.369Z,99497.34
2023-05-06T08:09:34.500Z,99503.06
2023-05-06T08:10:36.634Z,99500.28
2023-05-06T08:11:38.905Z,99499.84
2023-05-06T08:12:41.399Z,99503.06
2023-05-06T08:13:43.604Z,99504.13
2023-05-06T08:14:45.876Z,99500.47
2023-05-06T08:15:48.035Z,99501.81
2023-05-06T08:16:50.442Z,99501.59
2023-05-06T08:17:52.787Z,99496.16
2023-05-06T08:18:55.014Z,99498.09
2023-05-06T08:19:57.214Z,99507.72
2023-05-06T08:20:59.382Z,99511.31
2023-05-06T08:22:01.589Z,99496.72
2023-05-06T08:23:03.786Z,99497.53
2023-05-06T08:24:06.061Z,99497.44
2023-05-06T08:25:08.894Z,99503.88
2023-05-06T08:26:11.202Z,99505.53
2023-05-06T08:27:13.425Z,99504.53
2023-05-06T08:28:15.648Z,99495.59
2023-05-06T08:29:18.445Z,99508.22
2023-05-06T08:30:20.865Z,99501.31
2023-05-06T08:31:23.160Z,99495.50
2023-05-06T08:32:25.666Z,99504.16
2023-05-06T08:33:30.647Z,99504.63
2023-05-06T08:34:34.797Z,99500.94
2023-05-06T08:35:37.066Z,99503.00
2023-05-06T08:36:39.306Z,99501.75
2023-05-06T08:37:41.525Z,99503.28
2023-05-06T08:38:48.985Z,99497.25
2023-05-06T08:39:51.275Z,99493.63
2023-05-06T08:40:54.766Z,99491.56
2023-05-06T08:41:59.128Z,99505.44
2023-05-06T08:43:02.772Z,99503.53
2023-05-06T08:44:05.530Z,99502.34
2023-05-06T08:45:08.876Z,99490.16
2023-05-06T08:46:11.467Z,99502.63
2023-05-06T08:47:13.683Z,99491.53
2023-05-06T08:48:16.654Z,99498.38
2023-05-06T08:49:18.977Z,99496.16
2023-05-06T08:50:21.281Z,99499.25
2023-05-06T08:51:28.548Z,99492.78
2023-05-06T08:52:31.488Z,99484.88
2023-05-06T08:53:33.952Z,99485.44
2023-05-06T08:54:36.482Z,99488.59
2023-05-06T08:55:41.689Z,99487.69
2023-05-06T08:56:48.095Z,99492.78
2023-05-06T08:57:52.897Z,99490.06
2023-05-06T08:58:56.203Z,99492.22
2023-05-06T08:59:58.736Z,99493.75
2023-05-06T09:01:02.634Z,99493.22
2023-05-06T09:02:05.226Z,99495.16
2023-05-06T09:03:07.540Z,99492.78
2023-05-06T09:04:10.148Z,99500.31
2023-05-06T09:05:12.634Z,99489.13
2023-05-06T09:06:14.965Z,99483.47
2023-05-06T09:07:17.399Z,99493.41
2023-05-06T09:08:19.727Z,99492.50
2023-05-06T09:09:21.930Z,99491.00
2023-05-06T09:10:24.299Z,99498.00
2023-05-06T09:11:29.282Z,99493.25
2023-05-06T09:12:31.590Z,99486.13
2023-05-06T09:13:33.746Z,99492.16
2023-05-06T09:14:35.960Z,99486.94
2023-05-06T09:15:47.181Z,99483.34
2023-05-06T09:16:51.371Z,99491.50
2023-05-06T09:17:55.397Z,99491.44
2023-05-06T09:18:59.082Z,99485.28
2023-05-06T09:20:01.410Z,99499.47
2023-05-06T09:21:04.356Z,99488.09
2023-05-06T09:22:06.730Z,99482.06
2023-05-06T09:23:13.136Z,99476.19
2023-05-06T09:24:16.735Z,99492.81
2023-05-06T09:25:18.945Z,99493.31
2023-05-06T09:26:22.760Z,99483.09
2023-05-06T09:27:31.294Z,99483.34
2023-05-06T09:28:33.522Z,99481.38
2023-05-06T09:29:36.004Z,99483.59
2023-05-06T09:30:42.457Z,99487.09
2023-05-06T09:31:45.998Z,99477.53
2023-05-06T09:32:49.777Z,99477.53
2023-05-06T09:33:53.481Z,99486.31
2023-05-06T09:34:56.254Z,99476.19
2023-05-06T09:35:58.399Z,99481.16
2023-05-06T09:37:00.889Z,99482.66
2023-05-06T09:38:04.771Z,99487.28
2023-05-06T09:39:08.666Z,99483.84
2023-05-06T09:40:11.066Z,99488.84
2023-05-06T09:41:14.348Z,99483.63
2023-05-06T09:42:16.582Z,99479.69
2023-05-06T09:43:19.009Z,99477.88
2023-05-06T09:44:22.837Z,99477.13
2023-05-06T09:45:24.942Z,99481.50
2023-05-06T09:46:28.077Z,99486.34
2023-05-06T09:47:34.934Z,99472.56
2023-05-06T09:48:40.672Z,99481.00
2023-05-06T09:49:42.947Z,99476.50
2023-05-06T09:50:45.190Z,99480.16
2023-05-06T09:51:51.446Z,99474.88
2023-05-06T09:52:55.089Z,99473.06
2023-05-06T09:53:59.108Z,99467.78
2023-05-06T09:55:03.219Z,99464.31
2023-05-06T09:56:06.637Z,99467.44
2023-05-06T09:57:10.431Z,99471.53
2023-05-06T09:58:13.168Z,99475.09
2023-05-06T09:59:18.325Z,99470.09
2023-05-06T10:00:26.794Z,99475.09
2023-05-06T10:01:36.720Z,99480.81
2023-05-06T10:02:41.092Z,99478.16
2023-05-06T10:03:45.011Z,99464.94
2023-05-06T10:04:49.652Z,99469.94
2023-05-06T10:05:54.258Z,99469.38
2023-05-06T10:06:58.039Z,99468.25
2023-05-06T10:08:01.310Z,99471.69
2023-05-06T10:09:04.333Z,99466.94
2023-05-06T10:10:14.240Z,99466.28
2023-05-06T10:11:16.953Z,99459.50
2023-05-06T10:12:20.230Z,99472.13
2023-05-06T10:13:24.658Z,99470.53
2023-05-06T10:14:26.998Z,99470.31
2023-05-06T10:15:30.223Z,99463.63
2023-05-06T10:16:34.785Z,99472.06
2023-05-06T10:17:39.635Z,99462.75
2023-05-06T10:18:44.297Z,99464.91
2023-05-06T10:19:50.233Z,99458.84
2023-05-06T10:20:53.606Z,99466.81
2023-05-06T10:22:05.915Z,99458.63
2023-05-06T10:23:40.877Z,99456.63
2023-05-06T10:24:58.263Z,99462.94
2023-05-06T10:26:07.424Z,99457.88
2023-05-06T10:27:12.194Z,99452.44
2023-05-06T10:28:19.098Z,99450.88
2023-05-06T10:29:29.344Z,99450.66
2023-05-06T10:30:34.098Z,99450.81
2023-05-06T10:31:44.209Z,99455.84
2023-05-06T10:32:46.626Z,99452.66
2023-05-06T10:33:52.472Z,99447.97
2023-05-06T10:34:57.461Z,99444.16
2023-05-06T10:36:18.236Z,99437.97
2023-05-06T10:37:28.443Z,99445.44
2023-05-06T10:38:37.618Z,99437.66
2023-05-06T10:39:42.240Z,99435.00
2023-05-06T10:40:44.790Z,99436.09
2023-05-06T10:41:47.802Z,99439.28
2023-05-06T10:42:51.298Z,99438.19
2023-05-06T10:43:57.842Z,99432.31
2023-05-06T10:45:04.644Z,99435.13
2023-05-06T10:46:12.654Z,99431.88
2023-05-06T10:47:14.886Z,99432.75
2023-05-06T10:48:17.071Z,99432.72
2023-05-06T10:49:20.771Z,99431.63
2023-05-06T10:50:27.799Z,99434.56
2023-05-06T10:51:31.455Z,99428.06
2023-05-06T10:52:47.454Z,99433.00
2023-05-06T10:53:58.683Z,99434.47
2023-05-06T10:55:01.006Z,99432.72
2023-05-06T10:56:09.302Z,99420.63
2023-05-06T10:57:11.874Z,99431.75
2023-05-06T10:58:16.143Z,99417.47
2023-05-06T10:59:24.252Z,99412.94
2023-05-06T11:00:26.957Z,99424.03
2023-05-06T11:01:29.260Z,99417.63
2023-05-06T11:02:32.399Z,99416.78
2023-05-06T11:03:34.798Z,99411.41
2023-05-06T11:04:37.900Z,99413.66
2023-05-06T11:05:51.828Z,99411.16
2023-05-06T11:06:54.077Z,99407.63
2023-05-06T11:08:10.390Z,99415.06
2023-05-06T11:09:20.533Z,99415.84
2023-05-06T11:10:33.307Z,99414.84
2023-05-06T11:12:00.908Z,99409.97
2023-05-06T11:13:24.343Z,99413.16
2023-05-06T11:14:37.674Z,99410.88
2023-05-06T11:15:40.867Z,99413.31
2023-05-06T11:16:49.065Z,99411.63
2023-05-06T11:17:53.188Z,99410.34
2023-05-06T11:18:55.642Z,99406.22
2023-05-06T11:20:20.509Z,99401.78
2023-05-06T11:21:40.750Z,99393.19
2023-05-06T11:22:42.885Z,99391.94
2023-05-06T11:23:53.910Z,99397.28
2023-05-06T11:24:57.227Z,99398.22
2023-05-06T11:25:59.664Z,99392.75
2023-05-06T11:27:01.878Z,99404.41
2023-05-06T11:28:10.946Z,99405.97
2023-05-06T11:29:16.396Z,99408.75
2023-05-06T11:30:18.586Z,99407.19
2023-05-06T11:31:22.085Z,99405.75
2023-05-06T11:32:28.188Z,99407.38
2023-05-06T11:33:35.500Z,99395.63
2023-05-06T11:34:38.370Z,99399.16
2023-05-06T11:35:40.573Z,99395.06
2023-05-06T11:36:48.096Z,99396.78
2023-05-06T11:37:52.016Z,99399.31
2023-05-06T11:38:56.189Z,99393.22
2023-05-06T11:39:58.359Z,99399.47
2023-05-06T11:41:00.921Z,99395.38
2023-05-06T11:42:06.832Z,99400.56
2023-05-06T11:43:16.083Z,99393.53
2023-05-06T11:44:32.029Z,99401.00
2023-05-06T11:45:45.174Z,99401.28
2023-05-06T11:46:47.392Z,99410.69
2023-05-06T11:47:53.872Z,99411.28
2023-05-06T11:48:56.233Z,99407.31
2023-05-06T11:49:59.035Z,99401.72
2023-05-06T11:51:01.197Z,99400.91
2023-05-06T11:52:04.009Z,99396.94
2023-05-06T11:53:06.614Z,99401.50
2023-05-06T11:54:10.121Z,99402.78
2023-05-06T11:55:12.595Z,99400.47
2023-05-06T11:56:14.870Z,99397.66
2023-05-06T11:57:17.364Z,99398.44
2023-05-06T11:58:26.231Z,99394.06
2023-05-06T11:59:39.684Z,99399.31
2023-05-06T12:00:59.328Z,99398.19
2023-05-06T12:02:03.904Z,99396.03
2023-05-06T12:03:14.332Z,99384.88
2023-05-06T12:04:16.608Z,99391.81
2023-05-06T12:05:23.080Z,99385.88
2023-05-06T12:06:34.967Z,99370.66
2023-05-06T12:07:37.193Z,99384.16
2023-05-06T12:08:39.809Z,99385.75
2023-05-06T12:09:44.627Z,99377.09
2023-05-06T12:10:47.468Z,99376.16
2023-05-06T12:11:50.797Z,99394.91
2023-05-06T12:12:53.088Z,99386.88
2023-05-06T12:13:55.916Z,99385.47
2023-05-06T12:14:58.339Z,99390.56
2023-05-06T12:16:01.489Z,99377.75
2023-05-06T12:17:04.560Z,99374.28
2023-05-06T12:18:06.937Z,99367.53
2023-05-06T12:19:09.159Z,99375.28
2023-05-06T12:20:12.550Z,99379.63
2023-05-06T12:21:14.867Z,99376.69
2023-05-06T12:22:24.709Z,99375.84
2023-05-06T12:23:26.949Z,99383.75
2023-05-06T12:24:29.890Z,99375.22
2023-05-06T12:25:32.477Z,99381.47
2023-05-06T12:26:45.588Z,99368.59
2023-05-06T12:27:47.724Z,99381.09
2023-05-06T12:29:10.696Z,99384.81
2023-05-06T12:30:13.439Z,99373.78
2023-05-06T12:31:23.375Z,99384.19
2023-05-06T12:32:25.728Z,99375.47
2023-05-06T12:33:27.940Z,99376.13
2023-05-06T12:34:40.815Z,99372.19
2023-05-06T12:35:43.058Z,99373.34